Time;durP1;ratioP1;P1;durP2;ratioP2;P2;SDS_P1;SDS_P2;PMS_P1;PMS_P2;Temp;Humidity;BMP_temperature;BMP_pressure;BME280_temperature;BME280_humidity;BME280_pressure;Samples;Min_cycle;Max_cycle;Signal;HPM_P1;HPM_P2
2022/08/30 00:02:16;;;;;;;23.85;9.48;;;;;;;20.73;100.00;99087.28;5174423;27;20102;-49
2022/08/30 00:04:43;;;;;;;15.98;9.00;;;;;;;20.82;100.00;99085.41;5174756;27;20050;-50
2022/08/30 00:07:10;;;;;;;13.30;8.77;;;;;;;20.66;100.00;99080.66;5174088;27;20462;-52
2022/08/30 00:09:36;;;;;;;17.52;8.68;;;;;;;20.86;100.00;99093.72;5174360;27;20050;-49
2022/08/30 00:12:03;;;;;;;20.10;9.63;;;;;;;20.99;100.00;99094.53;5174243;27;20046;-50
2022/08/30 00:14:29;;;;;;;20.88;10.38;;;;;;;20.95;100.00;99093.06;5174107;27;20042;-51
2022/08/30 00:16:56;;;;;;;16.75;9.13;;;;;;;21.08;100.00;99091.94;5174456;27;20521;-51
2022/08/30 00:19:22;;;;;;;12.55;9.15;;;;;;;20.98;100.00;99097.78;5174360;27;20088;-52
2022/08/30 00:21:49;;;;;;;25.25;9.48;;;;;;;21.06;100.00;99090.78;5173885;27;20046;-52
2022/08/30 00:24:15;;;;;;;20.40;9.93;;;;;;;20.97;100.00;99101.78;5174267;27;20133;-55
2022/08/30 00:26:41;;;;;;;17.23;9.48;;;;;;;21.03;100.00;99100.84;5173944;27;20134;-53
2022/08/30 00:29:08;;;;;;;17.77;9.45;;;;;;;20.89;100.00;99092.81;5174001;27;20088;-53
2022/08/30 00:31:34;;;;;;;20.77;8.77;;;;;;;21.07;100.00;99095.94;5174135;27;20132;-52
2022/08/30 00:34:00;;;;;;;16.80;9.77;;;;;;;21.00;100.00;99098.91;5173720;27;20061;-49
2022/08/30 00:36:26;;;;;;;16.35;9.93;;;;;;;20.89;100.00;99090.03;5174013;27;20046;-49
2022/08/30 00:38:53;;;;;;;19.02;10.20;;;;;;;20.89;100.00;99087.25;5174151;27;20050;-49
2022/08/30 00:41:20;;;;;;;14.15;9.85;;;;;;;20.65;100.00;99084.63;5173911;27;20093;-49
2022/08/30 00:43:47;;;;;;;18.10;10.52;;;;;;;20.93;100.00;99074.03;5173966;27;20820;-49
2022/08/30 00:46:13;;;;;;;15.95;9.98;;;;;;;20.98;100.00;99075.50;5174166;27;20133;-49
2022/08/30 00:48:44;;;;;;;19.00;10.40;;;;;;;21.06;100.00;99080.44;5173736;27;20433;-49
2022/08/30 00:51:13;;;;;;;15.18;10.55;;;;;;;21.07;100.00;99076.44;5173905;27;20425;-50
2022/08/30 00:53:43;;;;;;;14.70;9.38;;;;;;;21.03;100.00;99074.97;5173453;27;20054;-49
2022/08/30 00:56:13;;;;;;;19.05;10.70;;;;;;;21.05;100.00;99073.28;5173494;27;20052;-49
2022/08/30 00:58:44;;;;;;;15.00;11.23;;;;;;;21.06;100.00;99065.72;5173457;27;20053;-49
2022/08/30 01:01:10;;;;;;;23.17;11.45;;;;;;;21.10;100.00;99058.84;5173336;27;20050;-49
2022/08/30 01:03:38;;;;;;;19.02;10.68;;;;;;;21.06;100.00;99052.59;5173423;27;20054;-50
2022/08/30 01:06:06;;;;;;;13.60;9.40;;;;;;;21.03;100.00;99064.59;5173483;27;20140;-49
2022/08/30 01:08:33;;;;;;;22.80;10.25;;;;;;;20.99;100.00;99061.09;5173306;27;20051;-50
2022/08/30 01:11:00;;;;;;;14.82;10.38;;;;;;;21.05;100.00;99051.00;5173335;27;20050;-48
2022/08/30 01:13:27;;;;;;;15.30;9.77;;;;;;;21.00;100.00;99039.63;5173026;27;20050;-49
2022/08/30 01:15:55;;;;;;;17.80;10.75;;;;;;;21.05;100.00;99044.63;5173143;27;20638;-49
2022/08/30 01:18:22;;;;;;;18.25;10.82;;;;;;;20.98;100.00;99037.25;5173306;27;20081;-49
2022/08/30 01:20:57;;;;;;;16.80;10.57;;;;;;;21.02;100.00;99035.16;5172500;27;20053;-50
2022/08/30 01:23:25;;;;;;;17.67;10.30;;;;;;;21.03;100.00;99036.72;5173010;27;20046;-50
2022/08/30 01:25:53;;;;;;;15.15;10.38;;;;;;;21.04;100.00;99041.06;5173135;27;20564;-48
2022/08/30 01:28:22;;;;;;;17.08;9.80;;;;;;;21.05;100.00;99041.84;5172841;27;20042;-52
2022/08/30 01:30:48;;;;;;;18.83;10.82;;;;;;;21.07;100.00;99034.63;5173097;27;20050;-49
2022/08/30 01:33:15;;;;;;;18.60;10.00;;;;;;;20.85;100.00;99036.41;5173164;27;20072;-49
2022/08/30 01:35:47;;;;;;;13.55;9.27;;;;;;;20.93;100.00;99037.81;5172908;27;20133;-51
2022/08/30 01:38:14;;;;;;;19.20;9.80;;;;;;;20.84;100.00;99029.28;5172853;27;20046;-50
2022/08/30 01:40:41;;;;;;;16.00;10.10;;;;;;;21.02;100.00;99021.22;5172680;27;20050;-49
2022/08/30 01:43:09;;;;;;;20.77;10.85;;;;;;;21.14;100.00;99042.78;5172790;27;20137;-50
2022/08/30 01:45:35;;;;;;;16.80;9.50;;;;;;;20.86;100.00;99033.19;5172871;27;20050;-52
2022/08/30 01:48:02;;;;;;;15.07;9.25;;;;;;;21.06;100.00;99049.78;5172832;27;20056;-49
2022/08/30 01:50:28;;;;;;;15.75;9.98;;;;;;;21.09;100.00;99057.28;5172563;27;20447;-52
2022/08/30 01:52:54;;;;;;;14.30;9.38;;;;;;;20.98;100.00;99055.97;5172620;27;20057;-52
2022/08/30 01:55:21;;;;;;;16.80;10.45;;;;;;;20.96;100.00;99067.56;5172538;27;20085;-49
2022/08/30 01:57:48;;;;;;;21.45;9.63;;;;;;;21.04;100.00;99068.16;5172517;27;20050;-50
2022/08/30 02:00:16;;;;;;;14.25;9.68;;;;;;;20.95;100.00;99060.41;5172462;27;20507;-49
2022/08/30 02:02:43;;;;;;;18.65;8.80;;;;;;;21.01;100.00;99053.09;5172526;27;20473;-49
2022/08/30 02:05:10;;;;;;;11.65;9.05;;;;;;;21.02;100.00;99057.44;5172365;27;20050;-50
2022/08/30 02:07:36;;;;;;;12.93;9.65;;;;;;;20.86;100.00;99035.97;5172275;27;20412;-49
2022/08/30 02:10:04;;;;;;;13.40;8.98;;;;;;;20.70;100.00;99021.28;5172355;27;20501;-49
2022/08/30 02:12:30;;;;;;;12.57;9.13;;;;;;;20.78;100.00;99006.72;5172559;27;20046;-48
2022/08/30 02:14:57;;;;;;;15.15;10.27;;;;;;;20.85;100.00;99022.47;5172525;27;20485;-49
2022/08/30 02:17:23;;;;;;;16.55;9.23;;;;;;;20.74;100.00;99030.34;5172170;27;20145;-49
2022/08/30 02:19:50;;;;;;;13.98;9.07;;;;;;;20.64;100.00;99019.03;5172242;27;20049;-50
2022/08/30 02:22:16;;;;;;;12.05;8.80;;;;;;;20.82;100.00;99034.50;5172141;27;20073;-50
2022/08/30 02:24:42;;;;;;;18.73;9.43;;;;;;;20.67;100.00;99032.06;5172236;27;20077;-49
2022/08/30 02:27:08;;;;;;;16.33;9.38;;;;;;;20.82;100.00;99035.28;5172160;27;20194;-49
2022/08/30 02:29:35;;;;;;;14.45;8.73;;;;;;;20.79;100.00;99064.03;5172000;27;20223;-48
2022/08/30 02:32:02;;;;;;;11.68;8.48;;;;;;;20.85;100.00;99070.63;5172162;27;20050;-49
2022/08/30 02:34:28;;;;;;;13.00;8.13;;;;;;;20.79;100.00;99086.31;5175444;27;20053;-49
2022/08/30 02:36:55;;;;;;;11.90;8.25;;;;;;;20.84;100.00;99088.56;5175854;27;20085;-49
2022/08/30 02:39:21;;;;;;;15.23;8.13;;;;;;;20.96;100.00;99103.00;5175935;27;20517;-49
2022/08/30 02:41:47;;;;;;;13.90;8.43;;;;;;;20.83;100.00;99117.66;5175634;27;20042;-51
2022/08/30 02:44:14;;;;;;;10.43;7.13;;;;;;;20.84;100.00;99119.22;5175717;27;20050;-49
2022/08/30 02:46:40;;;;;;;15.38;7.60;;;;;;;20.66;100.00;99128.00;5175820;27;20175;-49
2022/08/30 02:49:07;;;;;;;16.42;7.60;;;;;;;20.76;100.00;99122.59;5175746;27;20050;-51
2022/08/30 02:51:34;;;;;;;10.90;7.32;;;;;;;20.77;100.00;99122.19;5175646;27;20057;-49
2022/08/30 02:54:00;;;;;;;14.45;6.90;;;;;;;20.80;100.00;99128.88;5175495;27;20186;-49
2022/08/30 02:56:27;;;;;;;11.55;7.28;;;;;;;20.79;100.00;99132.88;5175865;27;20480;-49
2022/08/30 02:58:54;;;;;;;11.63;6.95;;;;;;;;;;5175674;27;20505;-50
2022/08/30 03:01:20;;;;;;;10.77;6.63;;;;;;;20.75;100.00;99140.53;5175620;27;20477;-49
2022/08/30 03:03:46;;;;;;;8.85;6.95;;;;;;;20.52;100.00;99155.38;5175342;27;20168;-52
2022/08/30 03:06:14;;;;;;;8.82;7.00;;;;;;;;;;5176057;27;20077;-49
2022/08/30 03:08:40;;;;;;;7.95;6.35;;;;;;;20.67;100.00;99145.50;5175554;27;20057;-49
2022/08/30 03:11:07;;;;;;;13.07;6.32;;;;;;;20.37;100.00;99154.91;5175491;27;20137;-50
2022/08/30 03:13:33;;;;;;;7.55;5.50;;;;;;;;;;5175694;27;20110;-49
2022/08/30 03:16:00;;;;;;;10.98;5.90;;;;;;;20.20;100.00;99168.78;5175127;27;20501;-49
2022/08/30 03:18:27;;;;;;;6.10;5.50;;;;;;;20.11;100.00;99157.44;5175444;27;20042;-51
2022/08/30 03:20:53;;;;;;;8.45;5.68;;;;;;;20.31;100.00;99157.41;5175021;27;20568;-51
2022/08/30 03:23:20;;;;;;;8.35;5.68;;;;;;;20.11;100.00;99153.88;5175392;27;20417;-50
2022/08/30 03:25:47;;;;;;;8.57;5.22;;;;;;;20.32;100.00;99167.31;5175135;27;20151;-50
2022/08/30 03:28:13;;;;;;;8.80;5.95;;;;;;;20.41;100.00;99180.66;5175100;27;20049;-50
2022/08/30 03:30:39;;;;;;;8.35;5.20;;;;;;;20.31;100.00;99176.91;5175180;27;20089;-51
2022/08/30 03:33:05;;;;;;;9.38;5.93;;;;;;;20.20;100.00;99179.91;5174677;27;20509;-49
2022/08/30 03:35:32;;;;;;;7.78;4.65;;;;;;;20.13;100.00;99173.72;5174993;27;20082;-49
2022/08/30 03:37:58;;;;;;;12.75;5.57;;;;;;;20.11;100.00;99170.56;5175291;27;20046;-53
2022/08/30 03:40:25;;;;;;;6.35;4.80;;;;;;;19.67;100.00;99170.63;5175053;27;20399;-49
2022/08/30 03:42:51;;;;;;;5.82;3.85;;;;;;;20.00;100.00;99178.38;5174555;27;20133;-51
2022/08/30 03:45:18;;;;;;;4.93;4.13;;;;;;;20.13;100.00;99179.28;5174231;27;20069;-50
2022/08/30 03:47:45;;;;;;;5.43;4.22;;;;;;;19.87;100.00;99190.13;5174622;27;20088;-50
2022/08/30 03:50:14;;;;;;;4.43;3.78;;;;;;;20.00;100.00;99184.72;5174615;27;20054;-53
2022/08/30 03:52:40;;;;;;;7.03;4.25;;;;;;;19.64;100.00;99193.72;5174726;27;20106;-51
2022/08/30 03:55:07;;;;;;;4.57;3.72;;;;;;;20.03;100.00;99191.41;5174794;27;20081;-51
2022/08/30 03:57:34;;;;;;;5.75;3.95;;;;;;;19.95;100.00;99190.75;5174812;27;20101;-51
2022/08/30 04:00:00;;;;;;;6.25;3.78;;;;;;;20.06;100.00;99183.00;5174577;27;20050;-49
2022/08/30 04:02:27;;;;;;;5.30;3.50;;;;;;;19.89;100.00;99184.13;5174512;27;20051;-50
2022/08/30 04:04:53;;;;;;;5.35;3.92;;;;;;;20.08;100.00;99188.13;5174652;27;20527;-51
2022/08/30 04:07:19;;;;;;;6.35;3.78;;;;;;;20.18;100.00;99190.69;5174399;27;20078;-53
2022/08/30 04:09:46;;;;;;;8.52;4.70;;;;;;;20.27;100.00;99169.84;5174342;27;20058;-50
2022/08/30 04:12:12;;;;;;;4.47;3.95;;;;;;;20.12;100.00;99164.56;5174343;27;20046;-52
2022/08/30 04:14:39;;;;;;;6.93;4.07;;;;;;;20.13;100.00;99152.22;5174334;27;20121;-53
2022/08/30 04:17:06;;;;;;;4.20;3.70;;;;;;;20.04;100.00;99165.94;5174210;27;20054;-51
2022/08/30 04:19:32;;;;;;;7.55;3.40;;;;;;;20.13;100.00;99166.16;5174461;27;20042;-51
2022/08/30 04:21:58;;;;;;;4.10;3.55;;;;;;;19.77;100.00;99159.75;5174418;27;20180;-50
2022/08/30 04:24:24;;;;;;;4.90;3.70;;;;;;;20.08;100.00;99180.56;5174102;27;20141;-52
2022/08/30 04:26:51;;;;;;;3.60;3.15;;;;;;;20.01;100.00;99177.13;5174114;27;20094;-53
2022/08/30 04:29:17;;;;;;;7.32;3.75;;;;;;;19.96;100.00;99181.22;5174039;27;20110;-50
2022/08/30 04:31:44;;;;;;;6.70;3.53;;;;;;;20.11;100.00;99193.63;5174174;27;20146;-53
2022/08/30 04:34:11;;;;;;;7.50;3.67;;;;;;;20.17;100.00;99172.41;5173934;27;20457;-53
2022/08/30 04:36:38;;;;;;;5.28;2.90;;;;;;;20.14;100.00;99150.22;5173655;27;20046;-52
2022/08/30 04:39:05;;;;;;;6.63;3.30;;;;;;;20.33;100.00;99159.78;5173932;27;20050;-52
2022/08/30 04:41:32;;;;;;;4.28;3.22;;;;;;;20.31;100.00;99151.84;5173711;27;20663;-53
2022/08/30 04:43:59;;;;;;;6.35;3.22;;;;;;;20.38;100.00;99165.59;5173543;27;20140;-50
2022/08/30 04:46:26;;;;;;;9.88;3.28;;;;;;;20.50;100.00;99125.16;5173607;27;20137;-52
2022/08/30 04:48:53;;;;;;;4.82;3.00;;;;;;;20.53;100.00;99110.41;5173649;27;20054;-50
2022/08/30 04:51:19;;;;;;;6.78;3.13;;;;;;;20.76;100.00;99078.03;5173442;27;20140;-51
2022/08/30 04:53:45;;;;;;;7.60;3.28;;;;;;;20.89;100.00;99037.91;5173438;27;20146;-52
2022/08/30 04:56:15;;;;;;;3.40;2.80;;;;;;;20.71;100.00;99025.63;5172259;27;20052;-49
2022/08/30 04:58:42;;;;;;;4.57;2.88;;;;;;;20.96;100.00;99036.13;5173723;27;20057;-52
2022/08/30 05:01:12;;;;;;;5.45;2.70;;;;;;;21.07;100.00;98986.47;5173321;27;20042;-52
2022/08/30 05:03:39;;;;;;;5.38;3.10;;;;;;;21.09;100.00;98973.66;5173397;27;20409;-52
2022/08/30 05:06:06;;;;;;;7.20;3.15;;;;;;;20.55;100.00;98959.59;5173345;27;20141;-53
2022/08/30 05:08:33;;;;;;;6.60;3.03;;;;;;;20.70;100.00;98983.06;5173174;27;20050;-52
2022/08/30 05:11:03;;;;;;;5.03;2.80;;;;;;;20.94;100.00;99008.72;5173239;27;20046;-53
2022/08/30 05:13:29;;;;;;;4.68;2.88;;;;;;;20.97;100.00;98937.38;5173103;27;20190;-50
2022/08/30 05:15:55;;;;;;;5.45;2.90;;;;;;;20.77;100.00;98960.59;5172887;27;20145;-52
2022/08/30 05:18:22;;;;;;;8.40;3.10;;;;;;;20.70;100.00;98963.56;5173207;27;20050;-52
2022/08/30 05:20:48;;;;;;;11.02;3.10;;;;;;;20.85;100.00;98961.19;5172994;27;20129;-50
2022/08/30 05:23:15;;;;;;;15.25;3.00;;;;;;;21.02;100.00;98947.97;5173097;27;20150;-53
2022/08/30 05:25:42;;;;;;;7.65;2.60;;;;;;;21.85;100.00;98768.53;5172976;27;20129;-53
2022/08/30 05:28:08;;;;;;;6.72;2.80;;;;;;;22.87;100.00;98457.09;5172878;27;20129;-53
2022/08/30 05:30:37;;;;;;;5.57;3.15;;;;;;;23.65;100.00;98111.44;5173021;27;20042;-51
2022/08/30 05:33:03;;;;;;;5.18;2.75;;;;;;;24.21;100.00;97880.06;5172560;27;20056;-50
2022/08/30 05:35:30;;;;;;;5.53;2.83;;;;;;;24.58;100.00;97789.91;5172740;27;20092;-52
2022/08/30 05:37:56;;;;;;;4.03;2.90;;;;;;;24.81;100.00;97772.03;5172774;27;20085;-57
2022/08/30 05:40:23;;;;;;;7.97;3.50;;;;;;;24.61;100.00;97777.72;5172609;27;20054;-54
2022/08/30 05:42:49;;;;;;;6.68;3.10;;;;;;;25.30;100.00;97761.00;5172697;27;20516;-51
2022/08/30 05:45:16;;;;;;;3.83;3.45;;;;;;;25.81;100.00;97748.06;5172757;27;20046;-55
2022/08/30 05:47:42;;;;;;;4.22;3.22;;;;;;;25.85;100.00;97753.44;5172789;27;20137;-54
2022/08/30 05:50:09;;;;;;;7.82;3.40;;;;;;;26.16;100.00;97780.66;5172646;27;20050;-54
2022/08/30 05:52:36;;;;;;;5.22;3.45;;;;;;;26.05;100.00;97759.66;5172332;27;20050;-57
2022/08/30 05:55:03;;;;;;;5.28;3.33;;;;;;;26.13;100.00;97778.88;5172396;27;20045;-57
2022/08/30 05:57:32;;;;;;;6.60;3.33;;;;;;;25.48;100.00;97769.03;5172687;27;20139;-48
2022/08/30 05:59:59;;;;;;;6.88;3.60;;;;;;;24.57;100.00;97761.13;5172049;27;20042;-51
2022/08/30 06:02:25;;;;;;;6.30;3.63;;;;;;;24.16;100.00;97774.41;5172241;27;20050;-53
2022/08/30 06:04:51;;;;;;;7.40;6.15;;;;;;;24.02;100.00;97778.78;5172346;27;20042;-53
2022/08/30 06:07:17;;;;;;;4.75;3.40;;;;;;;23.83;100.00;97797.88;5171896;27;20046;-55
2022/08/30 06:09:44;;;;;;;9.70;5.45;;;;;;;23.68;100.00;97806.31;5172090;27;20560;-55
2022/08/30 06:12:10;;;;;;;4.95;3.63;;;;;;;23.65;100.00;97831.66;5172356;27;20042;-55
2022/08/30 06:14:37;;;;;;;6.43;3.35;;;;;;;23.31;100.00;97838.78;5172255;27;20050;-55
2022/08/30 06:17:04;;;;;;;6.30;3.88;;;;;;;23.02;100.00;97838.31;5172082;27;20524;-53
2022/08/30 06:19:30;;;;;;;3.20;2.70;;;;;;;22.76;100.00;97918.31;5172041;27;20561;-54
2022/08/30 06:21:56;;;;;;;6.80;3.80;;;;;;;22.48;100.00;98021.81;5172092;27;20050;-55
2022/08/30 06:24:22;;;;;;;4.50;3.20;;;;;;;22.44;100.00;98007.25;5172456;27;20054;-55
2022/08/30 06:26:49;;;;;;;5.53;4.03;;;;;;;22.23;100.00;98034.19;5171919;27;20190;-55
2022/08/30 06:29:17;;;;;;;8.57;4.30;;;;;;;22.23;100.00;97995.13;5172298;27;20525;-56
2022/08/30 06:31:45;;;;;;;6.72;4.35;;;;;;;22.01;100.00;97978.56;5171972;27;20085;-51
2022/08/30 06:34:11;;;;;;;7.00;4.35;;;;;;;22.02;100.00;97982.91;5171715;27;20092;-54
2022/08/30 06:36:38;;;;;;;5.10;3.50;;;;;;;22.05;100.00;97962.44;5171928;27;20056;-56
2022/08/30 06:39:05;;;;;;;9.88;4.03;;;;;;;22.88;100.00;97961.19;5171861;27;20451;-52
2022/08/30 06:41:34;;;;;;;6.13;3.58;;;;;;;24.31;100.00;97780.66;5171850;27;20046;-55
2022/08/30 06:44:01;;;;;;;4.30;2.63;;;;;;;24.78;100.00;97817.09;5171660;27;20145;-56
2022/08/30 06:46:31;;;;;;;2.53;2.25;;;;;;;24.65;100.00;97846.25;5171747;27;20046;-57
2022/08/30 06:48:58;;;;;;;5.55;2.63;;;;;;;24.15;100.00;97831.63;5171595;27;20148;-57
2022/08/30 06:51:27;;;;;;;8.25;3.50;;;;;;;24.34;100.00;97807.69;5172165;27;20090;-56
2022/08/30 06:53:53;;;;;;;4.50;3.38;;;;;;;24.08;100.00;97841.22;5171472;27;20055;-55
2022/08/30 06:56:20;;;;;;;5.55;2.60;;;;;;;24.17;100.00;97812.31;5171587;27;20081;-54
2022/08/30 06:58:47;;;;;;;4.60;2.90;;;;;;;23.85;100.00;97895.34;5171246;27;20145;-57
2022/08/30 07:01:18;;;;;;;7.35;3.90;;;;;;;23.66;100.00;97911.56;5171591;27;20536;-53
2022/08/30 07:03:44;;;;;;;5.18;3.25;;;;;;;23.53;100.00;97813.97;5169410;27;20061;-54
2022/08/30 07:06:12;;;;;;;8.93;4.20;;;;;;;23.05;100.00;97807.84;5171355;27;20050;-55
2022/08/30 07:08:39;;;;;;;11.93;3.30;;;;;;;23.11;100.00;97805.91;5171502;27;20050;-54
2022/08/30 07:11:06;;;;;;;4.30;3.42;;;;;;;23.14;100.00;97816.13;5171350;27;20050;-56
2022/08/30 07:13:33;;;;;;;10.73;6.35;;;;;;;23.03;100.00;97805.53;5171379;27;20110;-52
2022/08/30 07:15:59;;;;;;;5.88;3.30;;;;;;;23.62;100.00;97799.84;5171223;27;20090;-54
2022/08/30 07:21:14;;;;;;;13.88;4.82;;;;;;;23.52;100.00;97825.63;5175159;27;20054;-55
2022/08/30 07:23:42;;;;;;;9.52;4.97;;;;;;;24.18;100.00;97808.25;5175056;27;20102;-49
2022/08/30 07:26:13;;;;;;;6.63;3.97;;;;;;;23.94;100.00;97798.03;5174712;27;20488;-52
2022/08/30 07:28:42;;;;;;;6.25;3.88;;;;;;;23.77;100.00;97796.28;5174650;27;20189;-48
2022/08/30 07:31:10;;;;;;;8.75;3.65;;;;;;;23.32;100.00;97807.50;5174701;27;20057;-47
2022/08/30 07:33:39;;;;;;;7.63;2.70;;;;;;;23.21;100.00;97812.94;5174547;27;20088;-51
2022/08/30 07:36:06;;;;;;;6.88;2.88;;;;;;;23.29;100.00;97811.28;5174879;27;20054;-51
2022/08/30 07:38:33;;;;;;;6.03;2.90;;;;;;;23.39;100.00;97814.75;5174776;27;20046;-48
2022/08/30 07:41:00;;;;;;;3.33;2.80;;;;;;;23.19;100.00;97821.81;5174827;27;20082;-49
2022/08/30 07:43:26;;;;;;;5.15;3.67;;;;;;;23.21;100.00;97819.28;5174556;27;20065;-49
2022/08/30 07:45:53;;;;;;;5.45;2.72;;;;;;;23.12;100.00;97818.63;5174749;27;20050;-47
2022/08/30 07:48:20;;;;;;;6.72;3.50;;;;;;;23.14;100.00;97821.72;5174626;27;20053;-48
2022/08/30 07:50:46;;;;;;;5.45;2.35;;;;;;;23.15;100.00;97820.44;5174671;27;20137;-47
2022/08/30 07:53:13;;;;;;;7.25;3.05;;;;;;;23.06;100.00;97817.75;5174543;27;20091;-47
2022/08/30 07:55:40;;;;;;;6.15;2.75;;;;;;;22.89;100.00;97814.63;5174246;27;20057;-48
2022/08/30 07:58:06;;;;;;;4.20;2.75;;;;;;;22.89;100.00;97821.03;5174306;27;20054;-49
2022/08/30 08:00:32;;;;;;;8.18;2.80;;;;;;;22.71;100.00;97821.19;5174051;27;20141;-49
2022/08/30 08:03:04;;;;;;;4.57;2.80;;;;;;;22.75;100.00;97827.34;5174228;27;20050;-50
2022/08/30 08:05:30;;;;;;;7.07;2.92;;;;;;;22.95;100.00;97833.06;5173922;27;20129;-49
2022/08/30 08:07:57;;;;;;;6.13;2.78;;;;;;;22.91;100.00;97831.72;5174160;27;20049;-49
2022/08/30 08:10:23;;;;;;;2.88;2.38;;;;;;;22.89;100.00;97826.59;5174003;27;20583;-51
2022/08/30 08:12:50;;;;;;;2.95;2.25;;;;;;;22.72;100.00;97836.69;5173904;27;20485;-48
2022/08/30 08:15:16;;;;;;;8.65;2.75;;;;;;;22.68;100.00;97836.88;5174043;27;20725;-47
2022/08/30 08:17:42;;;;;;;14.38;5.78;;;;;;;22.60;100.00;97837.75;5174184;27;20053;-50
2022/08/30 08:20:09;;;;;;;4.68;2.85;;;;;;;22.51;100.00;97844.94;5173990;27;20064;-50
2022/08/30 08:22:36;;;;;;;8.15;3.72;;;;;;;22.54;100.00;97841.19;5173800;27;20509;-51
2022/08/30 08:25:02;;;;;;;15.30;4.10;;;;;;;22.66;100.00;97839.38;5173943;27;20042;-49
2022/08/30 08:27:28;;;;;;;4.30;2.58;;;;;;;22.72;100.00;97837.44;5173641;27;20053;-51
2022/08/30 08:29:55;;;;;;;5.57;3.60;;;;;;;22.44;100.00;97834.13;5173809;27;20052;-48
2022/08/30 08:32:21;;;;;;;4.95;2.90;;;;;;;22.61;100.00;97834.47;5173768;27;20402;-48
2022/08/30 08:34:48;;;;;;;5.05;3.05;;;;;;;22.43;100.00;97834.63;5173716;27;20574;-49
2022/08/30 08:37:14;;;;;;;4.18;2.95;;;;;;;22.58;100.00;97840.22;5173620;27;20088;-48
2022/08/30 08:39:40;;;;;;;7.50;2.97;;;;;;;22.64;100.00;97836.28;5173317;27;20058;-48
2022/08/30 08:42:14;;;;;;;6.88;2.67;;;;;;;22.64;100.00;97836.28;5173456;27;20057;-49
2022/08/30 08:44:49;;;;;;;9.18;2.40;;;;;;;22.65;100.00;97837.06;5173711;27;20489;-50
2022/08/30 08:47:28;;;;;;;4.97;3.83;;;;;;;22.61;100.00;97844.88;5173553;27;20501;-50
2022/08/30 08:49:59;;;;;;;14.25;2.95;;;;;;;22.53;100.00;97839.66;5173301;27;20042;-48
2022/08/30 08:55:20;;;;;;;5.97;2.88;;;;;;;22.80;100.00;97832.28;5173253;27;20198;-52
2022/08/30 08:57:47;;;;;;;6.97;3.35;;;;;;;22.89;100.00;97835.00;5173263;27;20054;-48
2022/08/30 09:00:14;;;;;;;11.93;2.65;;;;;;;23.16;100.00;97830.41;5173330;27;20054;-50
2022/08/30 09:02:45;;;;;;;10.43;3.17;;;;;;;23.15;100.00;97829.59;5173218;27;20042;-49
2022/08/30 09:05:14;;;;;;;3.40;2.50;;;;;;;23.44;100.00;97836.44;5173197;27;20046;-49
2022/08/30 09:07:44;;;;;;;8.40;4.53;;;;;;;23.70;100.00;97868.16;5173180;27;20086;-52
2022/08/30 09:10:11;;;;;;;7.47;3.63;;;;;;;23.79;100.00;97902.88;5173199;27;20401;-50
2022/08/30 09:12:37;;;;;;;4.20;2.15;;;;;;;23.39;100.00;97891.03;5172879;27;20052;-53
2022/08/30 09:15:09;;;;;;;4.13;3.10;;;;;;;24.01;100.00;97922.03;5173271;27;20053;-52
2022/08/30 09:17:51;;;;;;;5.30;2.67;;;;;;;24.25;100.00;97958.28;5172972;27;20074;-48
2022/08/30 09:20:28;;;;;;;5.97;2.15;;;;;;;24.16;100.00;97940.34;5172776;27;20529;-47
2022/08/30 09:22:55;;;;;;;3.22;1.90;;;;;;;24.23;100.00;97941.22;5173108;27;20061;-49
2022/08/30 09:25:25;;;;;;;3.58;2.25;;;;;;;23.62;100.00;97906.13;5172783;27;20569;-52
2022/08/30 09:27:53;;;;;;;8.95;2.40;;;;;;;24.23;100.00;97941.22;5172947;27;20042;-49
2022/08/30 09:30:22;;;;;;;10.15;2.80;;;;;;;24.55;100.00;97953.38;5172575;27;20061;-50
2022/08/30 09:32:55;;;;;;;6.30;3.10;;;;;;;24.71;100.00;97977.28;5172772;27;20050;-50
2022/08/30 09:35:24;;;;;;;6.65;2.10;;;;;;;24.35;100.00;97998.91;5172736;27;20042;-48
2022/08/30 09:37:55;;;;;;;3.65;2.75;;;;;;;24.33;100.00;98012.63;5172720;27;20049;-48
2022/08/30 09:40:27;;;;;;;7.95;2.42;;;;;;;24.25;100.00;98003.84;5172521;27;20083;-52
2022/08/30 09:43:04;;;;;;;13.10;2.30;;;;;;;24.26;100.00;98008.22;5171960;27;20083;-52
2022/08/30 09:45:34;;;;;;;5.80;2.70;;;;;;;24.67;100.00;97997.09;5172807;27;20077;-50
2022/08/30 09:48:21;;;;;;;10.18;5.45;;;;;;;24.72;100.00;98010.41;5172627;27;20099;-49
2022/08/30 09:50:55;;;;;;;4.13;2.30;;;;;;;24.69;100.00;98041.44;5172491;27;20137;-47
2022/08/30 09:53:27;;;;;;;6.72;3.60;;;;;;;24.70;100.00;98096.25;5171985;27;20428;-56
2022/08/30 09:56:01;;;;;;;10.32;5.68;;;;;;;24.70;100.00;98018.53;5172419;27;20133;-60
2022/08/30 09:58:41;;;;;;;7.43;3.60;;;;;;;24.50;100.00;98054.94;5170753;27;20054;-50
2022/08/30 10:01:12;;;;;;;14.77;6.07;;;;;;;24.60;100.00;98101.97;5156432;27;20073;-53
2022/08/30 10:03:47;;;;;;;14.85;6.53;;;;;;;24.45;100.00;98111.63;5172281;27;20077;-53
2022/08/30 10:06:24;;;;;;;6.45;3.40;;;;;;;24.04;100.00;98052.66;5172333;27;20046;-55
2022/08/30 10:08:57;;;;;;;7.30;3.35;;;;;;;23.95;100.00;98003.88;5172566;27;20105;-53
2022/08/30 10:11:31;;;;;;;5.45;3.17;;;;;;;24.31;100.00;97982.31;5172083;27;20473;-52
2022/08/30 10:14:36;;;;;;;6.70;2.28;;;;;;;24.11;100.00;97993.47;5172362;27;20050;-54
2022/08/30 10:17:11;;;;;;;2.22;1.80;;;;;;;24.47;100.00;98005.47;5141607;27;20085;-55
2022/08/30 10:19:52;;;;;;;5.60;3.45;;;;;;;24.40;100.00;98029.03;5171919;27;20486;-53
2022/08/30 10:22:25;;;;;;;4.35;2.30;;;;;;;24.60;100.00;98019.94;5172362;27;20091;-52
2022/08/30 10:25:00;;;;;;;4.40;2.35;;;;;;;24.42;100.00;98002.13;5172032;27;20086;-54
2022/08/30 10:27:33;;;;;;;4.65;1.90;;;;;;;24.16;100.00;97993.56;5171898;27;20088;-54
2022/08/30 10:30:02;;;;;;;3.30;2.30;;;;;;;24.29;100.00;98015.66;5171803;27;20559;-54
2022/08/30 10:32:34;;;;;;;2.55;2.10;;;;;;;24.32;100.00;98016.69;5172387;27;20054;-54
2022/08/30 10:35:05;;;;;;;3.90;2.30;;;;;;;24.69;100.00;98021.81;5171727;27;20065;-56
2022/08/30 10:37:37;;;;;;;3.75;2.72;;;;;;;24.84;100.00;98068.16;5171876;27;20095;-55
2022/08/30 10:42:55;;;;;;;4.18;1.80;;;;;;;24.28;100.00;98008.47;5125886;27;20042;-51
2022/08/30 10:45:23;;;;;;;4.25;2.13;;;;;;;24.07;100.00;97990.84;5172029;27;20050;-52
2022/08/30 10:47:54;;;;;;;3.03;1.70;;;;;;;24.15;100.00;97966.03;5171604;27;20050;-55
2022/08/30 10:50:28;;;;;;;4.22;2.58;;;;;;;23.65;100.00;97951.97;5171748;27;20093;-54
2022/08/30 10:52:57;;;;;;;;;;;;;;;23.17;100.00;97910.97;5172083;27;20046;-54
2022/08/30 10:55:27;;;;;;;3.83;2.10;;;;;;;23.16;100.00;97850.75;5174787;27;19943;-52
2022/08/30 10:57:58;;;;;;;5.38;2.38;;;;;;;23.23;100.00;97836.38;5175439;27;20094;-55
2022/08/30 11:00:29;;;;;;;3.95;2.10;;;;;;;23.08;100.00;97843.22;5175189;27;20522;-54
2022/08/30 11:03:30;;;;;;;10.43;2.55;;;;;;;23.45;100.00;97847.13;5175989;27;20394;-54
2022/08/30 11:06:15;;;;;;;12.02;2.00;;;;;;;23.70;100.00;97856.22;5174740;27;20492;-52
2022/08/30 11:09:00;;;;;;;3.50;1.55;;;;;;;23.99;100.00;97872.13;5175306;27;20049;-53
2022/08/30 11:11:36;;;;;;;2.17;1.48;;;;;;;24.19;100.00;97902.19;5175424;27;20134;-52
2022/08/30 11:14:04;;;;;;;1.88;1.60;;;;;;;24.48;100.00;97920.19;5174956;27;20178;-55
2022/08/30 11:16:36;;;;;;;5.72;2.20;;;;;;;24.50;100.00;97948.47;5175398;27;20054;-55
2022/08/30 11:19:11;;;;;;;3.15;1.52;;;;;;;24.41;100.00;97963.38;5175352;27;20046;-52
2022/08/30 11:21:40;;;;;;;3.60;1.67;;;;;;;24.59;100.00;97909.91;5174990;27;20133;-55
2022/08/30 11:24:08;;;;;;;3.10;1.50;;;;;;;24.35;100.00;97879.25;5174866;27;20487;-57
2022/08/30 11:26:57;;;;;;;5.25;1.50;;;;;;;24.21;100.00;97863.28;5175063;27;20050;-56
2022/08/30 11:29:40;;;;;;;6.05;2.17;;;;;;;24.15;100.00;97868.03;5174681;27;20140;-58
2022/08/30 11:32:23;;;;;;;10.63;2.17;;;;;;;24.56;100.00;97879.28;5174549;27;20133;-58
2022/08/30 11:34:59;;;;;;;1.65;1.42;;;;;;;24.66;100.00;97945.13;5175090;27;20554;-58
2022/08/30 11:37:42;;;;;;;9.60;3.55;;;;;;;25.01;100.00;97978.66;5174599;27;20481;-55
2022/08/30 11:40:30;;;;;;;10.18;2.70;;;;;;;24.87;100.00;97969.09;5174725;27;20053;-56